Aeroporto :
LOGIN :

Iscrizione | Disclaimer

   EN    FR    IT 

 










Sommario :    VFR   VFR Marginale   IFR   IFR Intensivo   IFR Molto Intensivo
Visibilità : 
Base nubi : 
>= 8 km
>= 3000ft
5 / 8 km
1000 / 3000 ft
1500m / 5 km
500 / 1000 ft
800 / 1500m
200 / 500 ft
< 800m
< 200 ft
Simboli :   Temporali  Nebbia  Neve Forte  Precipitazioni Forti  Vento > 20 kt
SIGMETs :   Varie  Temporali  Ghiacco  Turbolenza  Onda orograficha  Ceneri Vulcaniche






- Altitudine del aeroporto : 25 ft
- Codice IATA : QCY


EGXC - RAF Coningsby

ULTIMO METAR :
  • 201220Z 13008KT CAVOK 07/04 Q1013 NOSIG RMK BLU BLU

METARs OBSOLETI :
  • 201150Z 15007KT CAVOK 07/04 Q1013 NOSIG RMK BLU BLU
  • 201120Z 15006KT CAVOK 06/03 Q1014 NOSIG RMK BLU BLU
  • 201050Z 15006KT CAVOK 06/03 Q1014 NOSIG RMK BLU BLU
  • 201020Z 14006KT CAVOK 05/03 Q1014 NOSIG RMK BLU BLU
  • 200950Z 14006KT CAVOK 05/03 Q1014 RMK BLU

TAF TAF EGXC
Valido dal 20 a 12 ore il 21 a 06 ore UTC


201044Z 2012/2106 14010KT 9999 FEW015 SCT040
PROB30
TEMPO 2100/2106 SCT022



MetMap, La meteo Aeronautica in un colpo d'occhio ! - Copyright ORBIFLY Dicembre 2007 - Disclaimer

ORBIFLY MET'MAP TEAM :

Programmazione e sviluppo : Alexandra Zaïnal
Concezione e sviluppo : Baudouin d'Aumeries
Co-Programmazione e sviluppo : Marc-Olivier Méhu
Supporto tecnico e logistico : Manuel Goepfert
Aiuto per la traduzione : Arnaldo La Scala

Contatto : metmap@orbifly.com




FONTI E CREDITI :

   NOAA